Nearby METAR Reports

 

KHOT - Hot Springs, Arkansas, USA
Distance from station: W 8mi, 14km
Updated: 08/11/2020 1:53pm
Clear
Clear
 Wind from varies
Wind: varies 6 mph , 9 km/h
Temperature: 93°F , 34°C
Heat Index: 100°F , 38°C
Dew Point: 72°F , 22°C
Humidity: 49%
Barometer: 29.96 inHg , 1014.6 hPa
Clouds: Clear
Visibility: 10 miles , 16 km
2020/08/11 18:53 KHOT 111853Z AUTO VRB05KT 10SM CLR 34/22 A2996 RMK AO2 LTG DSNT W AND NW SLP138 T03390222
KMWT - Mount Ida, Arkansas, USA
Distance from station: W 36mi, 58km
Updated: 08/11/2020 1:53pm
Mostly cloudy
Mostly cloudy
 Wind from NW
Wind: NW 5 mph , 7 km/h
Temperature: 86°F , 30°C
Heat Index: 93°F , 34°C
Dew Point: 73°F , 23°C
Humidity: 66%
Barometer: 29.97 inHg , 1014.9 hPa
Clouds: Mostly cloudy
Visibility: 10 miles , 16 km
Cloud details: Mostly cloudy 8000 ft
2020/08/11 18:53 KMWT 111853Z AUTO 31004KT 10SM BKN080 30/23 A2997 RMK AO2 SLP135 T03000228
 
KLIT - Little Rock, Arkansas, USA
Distance from station: ENE 45mi, 73km
Updated: 08/11/2020 1:53pm
Mostly cloudy
Mostly cloudy
 Wind from SSW
Wind: SSW 15 mph , 24 km/h
Temperature: 93°F , 34°C
Heat Index: 100°F , 38°C
Dew Point: 72°F , 22°C
Humidity: 49%
Barometer: 29.93 inHg , 1013.5 hPa
Clouds: Mostly cloudy
Visibility: 10 miles , 16 km
Cloud details: Mostly cloudy 5000 ft
Mostly cloudy 25000 ft
2020/08/11 18:53 KLIT 111853Z 20013KT 10SM BKN050TCU BKN250 34/22 A2993 RMK AO2 LTG DSNT N AND NE SLP132 TCU ALQDS CB DSNT N AND NE MOV E T03390217
KLRF - Little Rock Afb, Arkansas, USA
Distance from station: NE 56mi, 89km
Updated: 08/11/2020 2:13pm
Thunderstorm, Mostly cloudy
Thunderstorm, Mostly cloudy
 Wind from NE
Wind: NE 15 mph , 24 km/h, Gust: 21 mph , 33 km/h
Temperature: 84°F , 29°C
Heat Index: 90°F , 32°C
Dew Point: 73°F , 23°C
Humidity: 70%
Barometer: 29.95 inHg , 1014.2 hPa
Summary: Thunderstorm
Clouds: Mostly cloudy
Visibility: 10 miles , 16 km
Cloud details: Few Clouds 4100 ft
Mostly cloudy 5000 ft
2020/08/11 19:13 KLRF 111913Z AUTO 04013G18KT 10SM TS FEW041 BKN050 29/23 A2995 RMK AO2 TSB13 PRESRR SLP142